Flight Track Log - Related Links

Times and Time Zones

All times are in EDT time to prevent confusion due to time zone crossing. See the DAL3970 flight status page for this flight to view local times or setup timezone preferences in your user account.


Time Position Orientation Groundspeed Altitude Reporting Facility
EDT Latitude Longitude Course Direction KTS MPH feet Rate Location/Type
Tue 07:59:49 AM 44.7714 -89.5714 152° Southeast 277 319 4,000  Level Minneapolis Center
Tue 08:00:50 AM 44.7514 -89.4831 108° East 279 321 5,500 1,951 Climbing Minneapolis Center
Tue 08:01:00 AM 44.5787 -89.3751 153° Southeast  Level FlightAware Approximate
Tue 08:01:52 AM 44.6761 -89.4539 165° South 271 312 8,000  Level Minneapolis Center
Tue 08:02:00 AM 44.4937 -89.3119 152° Southeast  Level FlightAware Approximate
Tue 08:02:53 AM 44.6036 -89.4000 152° Southeast 280 322 10,600  Level Minneapolis Center
Tue 08:03:00 AM 44.4092 -89.2473 150° Southeast  Level FlightAware Approximate
Tue 08:04:00 AM 44.3253 -89.1814 152° Southeast  Level FlightAware Approximate
Tue 08:04:06 AM 44.5350 -89.3464 151° Southeast 291 335 12,500  Level Minneapolis Center
Tue 08:05:00 AM 44.2356 -89.1141 152° Southeast  Level FlightAware Approximate
Tue 08:05:07 AM 44.4572 -89.2861 151° Southeast 305 351 14,300  Level Minneapolis Center
Tue 08:06:08 AM 44.3614 -89.2122 151° Southeast 323 372 16,100 1,610 Climbing Minneapolis Center
Tue 08:07:10 AM 44.2750 -89.1472 152° Southeast 335 386 17,600 1,659 Climbing Minneapolis Center
Tue 08:08:11 AM 44.1908 -89.0825 151° Southeast 346 398 19,500 1,426 Climbing Minneapolis Center
Tue 08:09:12 AM 44.1181 -89.0281 152° Southeast 352 405 20,500 1,119 Climbing Minneapolis Center
Tue 08:10:25 AM 44.0161 -88.9500 151° Southeast 359 413 22,000 1,200 Climbing Minneapolis Center
Tue 08:11:27 AM 43.9114 -88.8703 151° Southeast 366 421 23,200 1,171 Climbing Minneapolis Center
Tue 08:12:28 AM 43.8181 -88.8014 152° Southeast 377 434 24,400 984 Climbing Minneapolis Center
Tue 08:13:29 AM 43.7097 -88.7200 151° Southeast 379 436 25,200 639 Climbing Minneapolis Center
Tue 08:14:30 AM 43.6458 -88.6725 152° Southeast 384 442 25,700 655 Climbing Minneapolis Center
Tue 08:15:19 AM 43.5311 -88.5886 152° Southeast 395 455 26,400 649 Climbing Chicago Center
Tue 08:16:21 AM 43.4461 -88.5258 152° Southeast 399 459 26,900 581 Climbing Chicago Center
Tue 08:17:23 AM 43.3350 -88.4433 152° Southeast 414 476 27,600 774 Climbing Chicago Center
Tue 08:18:25 AM 43.2175 -88.3578 152° Southeast 411 473 28,500 677 Climbing Chicago Center
Tue 08:19:27 AM 43.1231 -88.2728 147° Southeast 416 479 29,000 242 Climbing Chicago Center
Tue 08:20:29 AM 43.0719 -88.1253 115° Southeast 444 511 29,000  Level Chicago Center
Tue 08:21:31 AM 43.0278 -87.9683 111° Southeast 445 512 29,000  Level Chicago Center
Tue 08:22:33 AM 42.9811 -87.8056 111° Southeast 456 525 29,000  Level Chicago Center
Tue 08:23:35 AM 42.9358 -87.6414 111° Southeast 462 532 29,000  Level Chicago Center
Tue 08:24:37 AM 42.8803 -87.4522 112° Southeast 460 529 29,000  Level Chicago Center
Tue 08:25:39 AM 42.8358 -87.2989 112° Southeast 464 534 29,000  Level Chicago Center
Tue 08:26:41 AM 42.7881 -87.1383 112° Southeast 461 531 29,000  Level Chicago Center
Tue 08:27:43 AM 42.7408 -86.9781 112° Southeast 460 529 29,000  Level Chicago Center
Tue 08:28:45 AM 42.6425 -86.8303 132° Southeast 452 520 29,000  Level Chicago Center
Tue 08:29:47 AM 42.5378 -86.7222 143° Southeast 449 517 29,000  Level Chicago Center
Tue 08:30:48 AM 42.4453 -86.6294 143° Southeast 446 513 29,000 -98 Level Chicago Center
Tue 08:31:50 AM 42.3458 -86.5297 143° Southeast 448 516 28,800 -774 Descending Chicago Center
Tue 08:32:52 AM 42.2394 -86.4242 144° Southeast 450 518 27,400 -871 Descending Chicago Center
Tue 08:33:54 AM 42.1419 -86.3253 143° Southeast 443 510 27,000 -581 Descending Chicago Center
Tue 08:34:56 AM 42.0508 -86.2333 143° Southeast 417 480 26,200 -1,452 Descending Chicago Center
Tue 08:35:58 AM 41.9636 -86.1472 144° Southeast 397 457 24,000 -1,065 Descending Chicago Center
Tue 08:37:00 AM 41.8600 -86.0456 144° Southeast 389 448 24,000  Level Chicago Center
Tue 08:38:01 AM 41.7983 -85.9289 125° Southeast 405 466 24,000  Level Chicago Center
Tue 08:39:03 AM 41.7997 -85.7747 89° East 414 476 24,000 -629 Level Chicago Center
Tue 08:40:05 AM 41.8033 -85.6228 88° East 409 471 22,700 -1,403 Descending Chicago Center
Tue 08:41:07 AM 41.8069 -85.4694 88° East 405 466 21,100 -1,306 Descending Chicago Center
Tue 08:42:09 AM 41.8092 -85.3175 89° East 400 460 20,000 -532 Descending Chicago Center
Tue 08:43:11 AM 41.8125 -85.1692 88° East 394 453 20,000  Level Chicago Center
Tue 08:43:57 AM 41.8144 -85.0525 89° East 395 455 20,000  Level Cleveland Center
Tue 08:44:57 AM 41.8178 -84.9106 88° East 388 447 20,000  Level Cleveland Center
Tue 08:45:57 AM 41.8189 -84.7686 89° East 382 440 20,000 -200 Level Cleveland Center
Tue 08:46:57 AM 41.8219 -84.6239 88° East 382 440 19,600 -750 Descending Cleveland Center
Tue 08:47:57 AM 41.8250 -84.4761 88° East 387 445 18,500 -1,280 Descending Cleveland Center
Tue 08:48:12 AM 41.8225 -84.4314 94° East 398 458 18,000 -1,400 Descending Cleveland Center
Tue 08:48:57 AM 41.8258 -84.3258 88° East 387 445 17,100 -1,574 Descending Cleveland Center
Tue 08:49:13 AM 41.8233 -84.2756 94° East 400 460 16,400 -2,500 Descending Cleveland Center
Tue 08:49:57 AM 41.8225 -84.1694 91° East 387 445 14,600 -2,754 Descending Cleveland Center
Tue 08:50:14 AM 41.8236 -84.1306 88° East 376 433 13,600 -2,400 Descending Cleveland Center
Tue 08:50:57 AM 41.8308 -84.0361 84° East 373 429 12,200 -1,574 Descending Cleveland Center
Tue 08:51:15 AM 41.8483 -84.0036 54° Northeast 337 388 12,000 -200 Descending Cleveland Center
Tue 08:51:57 AM 41.8897 -83.9444 47° Northeast 314 361 12,000  Level Cleveland Center
Tue 08:52:16 AM 41.9092 -83.9203 43° Northeast 310 357 12,000  Level Cleveland Center
Tue 08:52:57 AM 41.9525 -83.8667 43° Northeast 307 353 12,000  Level Cleveland Center
Tue 08:53:17 AM 41.9764 -83.8372 42° Northeast 308 354 12,000  Level Cleveland Center
Tue 08:53:57 AM 42.0133 -83.7861 46° Northeast 302 348 12,000  Level Cleveland Center
Tue 08:54:18 AM 42.0392 -83.7567 40° Northeast 307 353 12,000  Level Cleveland Center
Tue 08:54:57 AM 42.0714 -83.7133 45° Northeast 296 341 12,000  Level Cleveland Center
Tue 08:55:19 AM 42.0953 -83.6867 40° Northeast 264 304 12,000  Level Cleveland Center
Tue 08:55:57 AM 42.1256 -83.6433 47° Northeast 276 318 12,000  Level Cleveland Center
Tue 08:56:20 AM 42.1469 -83.6219 37° Northeast 262 302 12,000  Level Cleveland Center
Tue 08:56:57 AM 42.1772 -83.5758 48° Northeast 269 310 12,000  Level Cleveland Center
Tue 08:57:21 AM 42.2008 -83.5517 37° Northeast 257 296 12,000 -800 Level Cleveland Center
Tue 08:57:57 AM 42.2392 -83.5225 29° Northeast 259 298 11,200 -1,612 Descending Cleveland Center
Tue 08:58:28 AM 42.2728 -83.5072 19° North 266 306 10,200 -1,674 Descending Cleveland Center
Tue 08:59:23 AM 42.3364 -83.4708 23° Northeast 262 302 8,800 -1,537 Descending Cleveland Center
Tue 09:00:29 AM 42.4106 -83.4236 25° Northeast 261 300 7,100 -1,453 Descending Cleveland Center
Tue 09:01:31 AM 42.4578 -83.3667 42° Northeast 248 285 5,700 -1,131 Descending Cleveland Center
Tue 09:02:31 AM 42.4431 -83.2789 103° East 196 226 4,800 -843 Descending Cleveland Center
Tue 09:03:32 AM 42.3975 -83.2711 173° South 164 189 4,000 -732 Descending Cleveland Center
Tue 09:04:34 AM 42.3517 -83.2747 183° South 164 189 3,300 -683 Descending Cleveland Center
Tue 09:05:35 AM 42.3111 -83.3069 210° Southwest 168 193 2,600 -689 Descending Cleveland Center

Login

Don't have an account? Register now (free) for customized features, flight alerts, and more!